Time;durP1;ratioP1;P1;durP2;ratioP2;P2;SDS_P1;SDS_P2;PMS_P1;PMS_P2;Temp;Humidity;BMP_temperature;BMP_pressure;BME280_temperature;BME280_humidity;BME280_pressure;Samples;Min_cycle;Max_cycle;Signal;HPM_P1;HPM_P2
2021/08/12 00:00:38;;;;;;;12.77;10.40;;;17.10;99.90;;;;;;5112226;28;20479;-68
2021/08/12 00:03:06;;;;;;;11.67;10.57;;;17.10;99.90;;;;;;5113004;28;20445;-68
2021/08/12 00:05:33;;;;;;;10.87;9.80;;;17.00;99.90;;;;;;5111757;28;20442;-70
2021/08/12 00:08:00;;;;;;;11.87;10.53;;;17.00;99.90;;;;;;5112471;28;20484;-68
2021/08/12 00:10:27;;;;;;;11.07;9.87;;;16.90;99.90;;;;;;5111778;28;20496;-68
2021/08/12 00:12:54;;;;;;;12.87;10.50;;;16.90;99.90;;;;;;5112551;28;20485;-68
2021/08/12 00:15:21;;;;;;;11.00;10.00;;;16.80;99.90;;;;;;5112101;28;20442;-69
2021/08/12 00:17:48;;;;;;;11.53;10.13;;;16.70;99.90;;;;;;5112510;28;21305;-68
2021/08/12 00:20:16;;;;;;;13.10;11.73;;;16.60;99.90;;;;;;5111321;28;20556;-68
2021/08/12 00:22:43;;;;;;;12.47;11.30;;;16.60;99.90;;;;;;5112494;28;20445;-68
2021/08/12 00:25:10;;;;;;;12.10;9.83;;;16.60;99.90;;;;;;5112310;28;20478;-68
2021/08/12 00:27:37;;;;;;;14.00;11.60;;;16.50;99.90;;;;;;5112282;28;20440;-68
2021/08/12 00:30:05;;;;;;;12.50;11.20;;;16.50;99.90;;;;;;5111296;28;20468;-68
2021/08/12 00:32:32;;;;;;;13.20;11.53;;;16.50;99.90;;;;;;5112073;28;20481;-68
2021/08/12 00:34:59;;;;;;;12.67;10.73;;;16.40;99.90;;;;;;5111631;28;20451;-68
2021/08/12 00:37:27;;;;;;;13.00;10.40;;;16.40;99.90;;;;;;5112341;28;20455;-68
2021/08/12 00:39:54;;;;;;;13.00;11.60;;;16.40;99.90;;;;;;5111387;28;21024;-68
2021/08/12 00:42:22;;;;;;;12.83;11.40;;;16.30;99.90;;;;;;5110305;28;20451;-68
2021/08/12 00:44:49;;;;;;;12.33;11.10;;;16.30;99.90;;;;;;5111826;28;21011;-68
2021/08/12 00:47:16;;;;;;;14.53;11.83;;;16.30;99.90;;;;;;5112022;28;20449;-69
2021/08/12 00:49:43;;;;;;;11.20;10.10;;;16.40;99.90;;;;;;5111307;28;20457;-68
2021/08/12 00:52:10;;;;;;;12.60;11.50;;;16.40;99.90;;;;;;5111963;28;20898;-68
2021/08/12 00:54:39;;;;;;;13.77;12.43;;;16.30;99.90;;;;;;5111678;28;20437;-68
2021/08/12 00:57:07;;;;;;;14.27;11.77;;;16.30;99.90;;;;;;5111965;28;20536;-68
2021/08/12 00:59:36;;;;;;;13.93;11.30;;;16.30;99.90;;;;;;5110683;28;20473;-68
2021/08/12 01:02:05;;;;;;;13.07;11.70;;;16.30;99.90;;;;;;5111801;28;20451;-68
2021/08/12 01:04:32;;;;;;;11.33;10.23;;;16.30;99.90;;;;;;5111113;28;20445;-69
2021/08/12 01:07:06;;;;;;;12.63;11.47;;;16.20;99.90;;;;;;5111679;28;20452;-68
2021/08/12 01:09:41;;;;;;;13.90;12.50;;;16.10;99.90;;;;;;5110841;28;20461;-69
2021/08/12 01:12:16;;;;;;;12.83;11.63;;;16.10;99.90;;;;;;5111172;28;20441;-68
2021/08/12 01:14:53;;;;;;;12.87;11.53;;;16.20;99.90;;;;;;5111206;28;20476;-68
2021/08/12 01:17:22;;;;;;;11.90;10.70;;;16.30;99.90;;;;;;5111528;28;20448;-69
2021/08/12 01:20:36;;;;;;;11.90;10.70;;;16.30;99.90;;;;;;5110194;28;20473;-69
2021/08/12 01:23:05;;;;;;;13.67;11.40;;;16.30;99.90;;;;;;5111299;28;20437;-68
2021/08/12 01:25:35;;;;;;;12.30;10.67;;;16.30;99.90;;;;;;5110932;28;20441;-69
2021/08/12 01:28:07;;;;;;;12.97;11.70;;;16.40;99.90;;;;;;5111192;28;20532;-69
2021/08/12 01:30:45;;;;;;;11.30;10.30;;;16.40;99.90;;;;;;5110467;28;20473;-69
2021/08/12 01:33:20;;;;;;;11.90;9.93;;;16.40;99.90;;;;;;5111108;28;20903;-69
2021/08/12 01:35:49;;;;;;;10.73;9.73;;;16.40;99.90;;;;;;5110877;28;20485;-69
2021/08/12 01:38:22;;;;;;;12.93;11.63;;;16.30;99.90;;;;;;5111209;28;20448;-68
2021/08/12 01:40:52;;;;;;;12.33;11.23;;;16.20;99.90;;;;;;5110318;28;20469;-69
2021/08/12 01:43:21;;;;;;;11.43;10.13;;;16.20;99.90;;;;;;5111267;28;20468;-69
2021/08/12 01:45:50;;;;;;;11.70;10.50;;;16.20;99.90;;;;;;5110965;28;20444;-68
2021/08/12 01:48:17;;;;;;;14.57;11.30;;;16.30;99.90;;;;;;5110951;28;20996;-68
2021/08/12 01:50:45;;;;;;;12.53;11.20;;;16.30;99.90;;;;;;5110159;28;20471;-68
2021/08/12 01:53:14;;;;;;;11.70;10.50;;;16.30;99.90;;;;;;5110675;28;20479;-69
2021/08/12 01:55:42;;;;;;;11.53;10.33;;;16.30;99.90;;;;;;5110468;28;20537;-69
2021/08/12 01:58:12;;;;;;;11.93;10.60;;;16.30;99.90;;;;;;5110543;28;20536;-69
2021/08/12 02:00:39;;;;;;;14.00;12.60;;;16.30;99.90;;;;;;5109821;28;20484;-69
2021/08/12 02:03:07;;;;;;;12.37;10.83;;;16.30;99.90;;;;;;5110548;28;20443;-69
2021/08/12 02:05:35;;;;;;;12.23;11.03;;;16.40;99.90;;;;;;5110073;28;20453;-68
2021/08/12 02:08:02;;;;;;;12.13;10.40;;;16.40;99.90;;;;;;5110445;28;20445;-69
2021/08/12 02:10:30;;;;;;;12.80;10.73;;;16.30;99.90;;;;;;5109234;28;21139;-69
2021/08/12 02:12:57;;;;;;;12.03;10.93;;;16.30;99.90;;;;;;5110242;28;20479;-68
2021/08/12 02:15:24;;;;;;;12.33;10.83;;;16.40;99.90;;;;;;5110075;28;20445;-69
2021/08/12 02:17:51;;;;;;;12.00;10.80;;;16.40;99.90;;;;;;5110220;28;21128;-68
2021/08/12 02:20:18;;;;;;;11.40;10.23;;;16.40;99.90;;;;;;5109125;28;20501;-69
2021/08/12 02:22:48;;;;;;;10.87;9.77;;;16.40;99.90;;;;;;5109871;28;20529;-69
2021/08/12 02:25:25;;;;;;;10.33;9.23;;;16.30;99.90;;;;;;5109607;28;20456;-69
2021/08/12 02:27:56;;;;;;;13.27;9.83;;;16.30;99.90;;;;;;5110093;28;20868;-67
2021/08/12 02:30:23;;;;;;;10.23;8.80;;;16.30;99.90;;;;;;5109445;28;20461;-69
2021/08/12 02:32:51;;;;;;;10.80;9.80;;;16.20;99.90;;;;;;5110082;28;20441;-68
2021/08/12 02:35:20;;;;;;;10.10;9.10;;;16.20;99.90;;;;;;5109837;28;20453;-69
2021/08/12 02:37:48;;;;;;;12.20;11.00;;;16.10;99.90;;;;;;5110384;28;20445;-69
2021/08/12 02:40:15;;;;;;;12.37;11.17;;;16.10;99.90;;;;;;5109315;28;20495;-69
2021/08/12 02:42:44;;;;;;;12.17;10.97;;;16.00;99.90;;;;;;5109981;28;21144;-68
2021/08/12 02:45:13;;;;;;;11.20;10.00;;;16.00;99.90;;;;;;5109577;28;20471;-68
2021/08/12 02:47:41;;;;;;;11.87;10.60;;;16.00;99.90;;;;;;5109887;28;20445;-69
2021/08/12 02:50:10;;;;;;;11.23;10.07;;;15.90;99.90;;;;;;5109351;28;20465;-69
2021/08/12 02:52:40;;;;;;;11.23;10.03;;;15.80;99.90;;;;;;5109860;28;20926;-69
2021/08/12 02:55:08;;;;;;;11.77;10.57;;;15.90;99.90;;;;;;5109472;28;21002;-69
2021/08/12 02:57:36;;;;;;;11.70;10.60;;;16.00;99.90;;;;;;5109757;28;20977;-68
2021/08/12 03:00:05;;;;;;;12.50;10.80;;;16.00;99.90;;;;;;5108836;28;20463;-68
2021/08/12 03:02:34;;;;;;;11.53;10.43;;;15.90;99.90;;;;;;5109680;28;20460;-69
2021/08/12 03:05:01;;;;;;;11.73;10.50;;;15.90;99.90;;;;;;5109409;28;20953;-69
2021/08/12 03:07:29;;;;;;;13.73;9.73;;;15.90;99.90;;;;;;5109968;28;20488;-69
2021/08/12 03:09:58;;;;;;;11.33;10.13;;;15.80;99.90;;;;;;5108932;28;20469;-69
2021/08/12 03:12:25;;;;;;;11.57;10.37;;;15.90;99.90;;;;;;5109802;28;20523;-68
2021/08/12 03:14:53;;;;;;;12.00;10.13;;;15.90;99.90;;;;;;5109179;28;21024;-68
2021/08/12 03:17:21;;;;;;;15.07;10.70;;;15.80;99.90;;;;;;5109917;28;20952;-69
2021/08/12 03:19:49;;;;;;;14.27;10.40;;;15.80;99.90;;;;;;5108700;28;20483;-69
2021/08/12 03:22:17;;;;;;;11.67;10.30;;;15.70;99.90;;;;;;5110005;28;20477;-68
2021/08/12 03:24:46;;;;;;;11.87;10.00;;;15.70;99.90;;;;;;5109373;28;20441;-68
2021/08/12 03:27:13;;;;;;;11.73;10.17;;;15.70;99.90;;;;;;5109636;28;20464;-68
2021/08/12 03:29:41;;;;;;;12.37;11.10;;;15.70;99.90;;;;;;5108400;28;20476;-68
2021/08/12 03:32:09;;;;;;;12.20;10.03;;;15.80;99.90;;;;;;5109612;28;21247;-70
2021/08/12 03:34:37;;;;;;;14.63;11.73;;;15.80;99.90;;;;;;5109215;28;20573;-68
2021/08/12 03:37:06;;;;;;;11.87;10.67;;;15.80;99.90;;;;;;5109696;28;20444;-69
2021/08/12 03:39:33;;;;;;;18.00;12.40;;;15.70;99.90;;;;;;5108752;28;20789;-68
2021/08/12 03:42:00;;;;;;;11.63;10.43;;;15.70;99.90;;;;;;5113167;28;20539;-68
2021/08/12 03:44:27;;;;;;;16.00;11.67;;;15.70;99.90;;;;;;5112944;28;20432;-68
2021/08/12 03:46:54;;;;;;;10.43;9.33;;;15.70;99.90;;;;;;5113440;28;20816;-68
2021/08/12 03:49:21;;;;;;;12.03;10.83;;;15.70;99.90;;;;;;5112630;28;20443;-69
2021/08/12 03:51:48;;;;;;;12.10;10.33;;;15.70;99.90;;;;;;5113379;28;20445;-69
2021/08/12 03:54:17;;;;;;;12.97;9.37;;;15.70;99.90;;;;;;5112961;28;20568;-69
2021/08/12 03:56:44;;;;;;;13.33;10.97;;;15.70;99.90;;;;;;5112905;28;20445;-68
2021/08/12 03:59:10;;;;;;;13.33;11.00;;;15.70;99.90;;;;;;5112304;28;20519;-68
2021/08/12 04:01:37;;;;;;;14.00;11.90;;;15.60;99.90;;;;;;5113219;28;20441;-69
2021/08/12 04:04:05;;;;;;;12.63;10.23;;;15.60;99.90;;;;;;5112731;28;20951;-69
2021/08/12 04:06:32;;;;;;;11.23;10.10;;;15.60;99.90;;;;;;5112377;28;20488;-69
2021/08/12 04:08:58;;;;;;;12.67;11.37;;;15.60;99.90;;;;;;5111943;28;20524;-69
2021/08/12 04:11:27;;;;;;;14.90;10.80;;;15.60;99.90;;;;;;5112763;28;20918;-68
2021/08/12 04:13:53;;;;;;;11.73;10.20;;;15.60;99.90;;;;;;5112411;28;20484;-68
2021/08/12 04:16:20;;;;;;;13.00;11.07;;;15.60;99.90;;;;;;5112198;28;20472;-68
2021/08/12 04:18:47;;;;;;;12.03;10.87;;;15.60;99.90;;;;;;5112575;28;20441;-69
2021/08/12 04:21:14;;;;;;;13.10;11.80;;;15.60;99.90;;;;;;5111800;28;20556;-69
2021/08/12 04:23:41;;;;;;;12.43;11.13;;;15.60;99.90;;;;;;5112212;28;20554;-69
2021/08/12 04:26:08;;;;;;;11.60;10.50;;;15.70;99.90;;;;;;5112284;28;20547;-69
2021/08/12 04:28:36;;;;;;;11.20;10.00;;;15.70;99.90;;;;;;5112369;28;20539;-69
2021/08/12 04:31:03;;;;;;;12.33;11.10;;;15.70;99.90;;;;;;5111376;28;20511;-68
2021/08/12 04:33:31;;;;;;;11.27;10.10;;;15.70;99.90;;;;;;5112222;28;20477;-68
2021/08/12 04:35:58;;;;;;;10.50;9.40;;;15.70;99.90;;;;;;5111995;28;20453;-68
2021/08/12 04:38:26;;;;;;;15.23;12.80;;;15.80;99.90;;;;;;5112020;28;20934;-69
2021/08/12 04:40:53;;;;;;;12.73;10.87;;;15.80;99.90;;;;;;5111220;28;20465;-67
2021/08/12 04:43:20;;;;;;;12.57;11.30;;;15.80;99.90;;;;;;5111997;28;20486;-69
2021/08/12 04:45:48;;;;;;;11.57;10.47;;;15.80;99.90;;;;;;5111858;28;20441;-69
2021/08/12 04:48:15;;;;;;;13.17;11.80;;;15.90;99.90;;;;;;5111786;28;20456;-69
2021/08/12 04:50:42;;;;;;;12.07;10.90;;;16.00;99.90;;;;;;5110532;27;20469;-69
2021/08/12 04:53:10;;;;;;;12.70;10.27;;;16.10;99.90;;;;;;5112197;28;20476;-68
2021/08/12 04:55:37;;;;;;;10.90;9.83;;;16.20;99.90;;;;;;5111530;28;20559;-68
2021/08/12 04:58:05;;;;;;;11.23;10.10;;;16.20;99.90;;;;;;5112028;28;20450;-69
2021/08/12 05:00:32;;;;;;;12.33;11.03;;;16.30;99.90;;;;;;5110862;27;20983;-69
2021/08/12 05:03:01;;;;;;;11.43;10.23;;;16.40;99.90;;;;;;5111679;28;20455;-66
2021/08/12 05:05:27;;;;;;;10.73;9.73;;;16.50;99.90;;;;;;5111252;28;20450;-68
2021/08/12 05:07:54;;;;;;;14.00;10.10;;;16.50;99.90;;;;;;5111755;28;20524;-68
2021/08/12 05:10:21;;;;;;;11.40;10.27;;;16.70;99.90;;;;;;5110803;28;20497;-69
2021/08/12 05:12:48;;;;;;;13.13;11.40;;;16.80;99.90;;;;;;5111568;28;20516;-68
2021/08/12 05:15:15;;;;;;;12.43;10.70;;;17.00;99.90;;;;;;5111017;28;20471;-69
2021/08/12 05:17:42;;;;;;;13.20;11.70;;;17.10;99.90;;;;;;5111460;28;20528;-70
2021/08/12 05:20:11;;;;;;;11.90;9.50;;;17.10;99.90;;;;;;5110372;28;20560;-68
2021/08/12 05:22:38;;;;;;;11.20;9.67;;;17.20;99.90;;;;;;5111413;28;20461;-68
2021/08/12 05:25:06;;;;;;;10.77;9.53;;;17.20;99.90;;;;;;5110936;28;20472;-68
2021/08/12 05:27:33;;;;;;;12.67;10.60;;;17.10;99.90;;;;;;5111180;28;20449;-70
2021/08/12 05:30:00;;;;;;;11.70;10.50;;;17.10;99.90;;;;;;5110630;28;20457;-70
2021/08/12 05:32:27;;;;;;;12.47;11.00;;;17.10;99.90;;;;;;5110952;28;20532;-69
2021/08/12 05:34:54;;;;;;;10.80;9.43;;;17.10;99.90;;;;;;5110932;28;20476;-69
2021/08/12 05:37:22;;;;;;;11.57;10.47;;;17.10;99.90;;;;;;5111120;28;20524;-69
2021/08/12 05:39:49;;;;;;;14.00;10.13;;;17.20;99.90;;;;;;5110459;28;20475;-69
2021/08/12 05:42:16;;;;;;;11.77;9.97;;;17.40;99.90;;;;;;5111107;28;20449;-69
2021/08/12 05:44:43;;;;;;;12.60;9.20;;;17.50;99.90;;;;;;5110757;28;20464;-70
2021/08/12 05:47:09;;;;;;;12.20;10.07;;;17.70;99.90;;;;;;5111167;28;20469;-69
2021/08/12 05:49:36;;;;;;;12.17;10.87;;;17.90;99.90;;;;;;5110356;28;20501;-69
2021/08/12 05:52:04;;;;;;;13.73;10.30;;;18.20;99.90;;;;;;5110988;28;20553;-70
2021/08/12 05:54:32;;;;;;;11.13;9.83;;;18.40;99.90;;;;;;5110606;28;20488;-71
2021/08/12 05:56:59;;;;;;;11.50;9.77;;;18.60;99.90;;;;;;5110869;28;20528;-69
2021/08/12 05:59:26;;;;;;;12.50;10.47;;;18.70;99.90;;;;;;5110036;28;20552;-70
2021/08/12 06:01:53;;;;;;;11.70;10.47;;;18.80;99.90;;;;;;5111016;28;21263;-69
2021/08/12 06:04:20;;;;;;;10.30;9.13;;;18.90;99.90;;;;;;5109844;28;20445;-69
2021/08/12 06:06:47;;;;;;;12.27;11.07;;;18.90;99.90;;;;;;5110811;28;20814;-69
2021/08/12 06:09:14;;;;;;;11.70;10.27;;;18.80;99.90;;;;;;5109805;28;20441;-70
2021/08/12 06:11:42;;;;;;;10.57;9.43;;;18.70;99.90;;;;;;5110481;28;20471;-68
2021/08/12 06:14:09;;;;;;;11.07;9.80;;;18.60;99.90;;;;;;5110372;28;20532;-68
2021/08/12 06:16:36;;;;;;;10.83;9.70;;;18.50;99.90;;;;;;5109925;28;20540;-68
2021/08/12 06:19:02;;;;;;;12.30;10.10;;;18.50;99.90;;;;;;5109619;28;20455;-69
2021/08/12 06:21:32;;;;;;;10.03;9.00;;;18.40;99.90;;;;;;5110542;28;20433;-68
2021/08/12 06:23:59;;;;;;;11.37;10.17;;;18.40;99.90;;;;;;5110531;28;20463;-68
2021/08/12 06:26:26;;;;;;;11.33;9.87;;;18.40;99.90;;;;;;5110099;28;20453;-70
2021/08/12 06:28:54;;;;;;;12.33;10.53;;;18.40;99.90;;;;;;5109806;28;20451;-68
2021/08/12 06:31:21;;;;;;;10.27;9.27;;;18.50;99.90;;;;;;5109606;28;21032;-68
2021/08/12 06:33:48;;;;;;;11.43;10.07;;;18.50;99.90;;;;;;5110276;28;20472;-68
2021/08/12 06:36:15;;;;;;;14.70;9.97;;;18.60;99.90;;;;;;5109613;28;20564;-68
2021/08/12 06:38:42;;;;;;;10.97;9.73;;;18.70;99.90;;;;;;5110202;28;20441;-68
2021/08/12 06:41:09;;;;;;;13.80;9.80;;;18.80;99.90;;;;;;5107110;28;20565;-69
2021/08/12 06:43:35;;;;;;;10.40;9.33;;;18.80;99.90;;;;;;5109929;28;20911;-68
2021/08/12 06:46:03;;;;;;;11.97;10.70;;;18.90;99.90;;;;;;5109860;28;20537;-68
2021/08/12 06:48:30;;;;;;;11.33;9.43;;;19.10;99.90;;;;;;5110335;28;20443;-68
2021/08/12 06:50:57;;;;;;;10.80;9.60;;;19.20;99.90;;;;;;5109102;28;20832;-68
2021/08/12 06:53:24;;;;;;;12.27;10.00;;;19.40;99.90;;;;;;5110068;28;20445;-69
2021/08/12 06:55:51;;;;;;;11.00;9.53;;;19.70;99.90;;;;;;5109634;28;20847;-68
2021/08/12 06:58:17;;;;;;;10.67;9.40;;;20.00;99.90;;;;;;5109876;28;20480;-68
2021/08/12 07:00:44;;;;;;;13.70;9.57;;;20.20;99.90;;;;;;5109045;28;20559;-68
2021/08/12 07:03:12;;;;;;;10.10;9.10;;;20.50;99.90;;;;;;5109766;28;20897;-68
2021/08/12 07:05:39;;;;;;;10.20;9.10;;;20.70;99.90;;;;;;5109260;28;20931;-68
2021/08/12 07:08:08;;;;;;;10.20;9.03;;;20.80;99.90;;;;;;5110007;28;20524;-68
2021/08/12 07:10:35;;;;;;;10.80;9.17;;;20.90;99.90;;;;;;5109591;28;20472;-68
2021/08/12 07:13:02;;;;;;;8.70;7.80;;;21.00;99.90;;;;;;5109840;28;20517;-68
2021/08/12 07:15:29;;;;;;;12.10;8.97;;;21.20;99.90;;;;;;5112531;28;20512;-68
2021/08/12 07:17:56;;;;;;;10.10;9.10;;;21.20;99.90;;;;;;5114106;28;20445;-68
2021/08/12 07:20:24;;;;;;;10.70;8.73;;;21.20;99.90;;;;;;5112724;28;20943;-68
2021/08/12 07:22:51;;;;;;;10.47;9.47;;;21.10;99.90;;;;;;5113425;28;20455;-68
2021/08/12 07:25:18;;;;;;;8.33;7.53;;;21.10;99.90;;;;;;5113267;28;20437;-68
2021/08/12 07:27:48;;;;;;;10.03;8.43;;;21.20;99.90;;;;;;5113775;28;20847;-68
2021/08/12 07:30:15;;;;;;;11.50;7.93;;;21.30;99.90;;;;;;5112734;28;20855;-68
2021/08/12 07:32:42;;;;;;;8.90;7.50;;;21.40;99.90;;;;;;5113531;28;20443;-68
2021/08/12 07:35:10;;;;;;;8.80;8.00;;;21.60;99.90;;;;;;5113262;28;20479;-68
2021/08/12 07:37:38;;;;;;;8.20;7.40;;;21.70;99.90;;;;;;5113445;28;20448;-68
2021/08/12 07:40:06;;;;;;;8.63;7.77;;;21.90;99.90;;;;;;5112423;28;20495;-68
2021/08/12 07:42:33;;;;;;;11.10;7.90;;;22.20;99.90;;;;;;5113213;27;20441;-69
2021/08/12 07:45:01;;;;;;;11.20;7.60;;;22.40;99.90;;;;;;5112957;28;20529;-69
2021/08/12 07:47:30;;;;;;;8.80;6.87;;;22.70;99.90;;;;;;5112964;28;20449;-69
2021/08/12 07:49:57;;;;;;;8.60;7.80;;;22.90;99.90;;;;;;5112216;28;20467;-68
2021/08/12 07:52:24;;;;;;;6.83;6.23;;;22.90;99.90;;;;;;5113333;28;20453;-68
2021/08/12 07:54:52;;;;;;;6.83;6.00;;;23.00;99.90;;;;;;5112891;28;20959;-68
2021/08/12 07:57:19;;;;;;;8.17;6.63;;;23.10;99.90;;;;;;5113102;28;20452;-69
2021/08/12 07:59:45;;;;;;;6.83;6.07;;;23.10;99.90;;;;;;5112141;28;20901;-69
2021/08/12 08:02:12;;;;;;;7.65;5.85;;;23.20;99.90;;;;;;5112339;28;20521;-68
2021/08/12 08:04:39;;;;;;;8.97;6.50;;;23.20;99.90;;;;;;5112910;28;20200;-69
2021/08/12 08:07:06;;;;;;;7.70;5.80;;;23.30;99.90;;;;;;5112976;28;20449;-68
2021/08/12 08:09:33;;;;;;;8.30;6.03;;;23.40;99.90;;;;;;5111950;28;20536;-68
2021/08/12 08:12:01;;;;;;;8.90;6.47;;;23.40;99.90;;;;;;5112862;28;20448;-68
2021/08/12 08:14:28;;;;;;;8.90;6.63;;;23.50;99.90;;;;;;5112180;28;20464;-69
2021/08/12 08:16:54;;;;;;;6.70;6.00;;;23.60;99.90;;;;;;5112657;28;20452;-68
2021/08/12 08:19:21;;;;;;;6.93;6.00;;;23.50;99.90;;;;;;5111730;28;20449;-68
2021/08/12 08:21:48;;;;;;;13.17;6.40;;;23.50;99.90;;;;;;5112499;28;20885;-68
2021/08/12 08:24:15;;;;;;;8.63;6.30;;;23.60;99.90;;;;;;5112369;28;20445;-69
2021/08/12 08:26:42;;;;;;;7.30;6.27;;;23.70;99.90;;;;;;5111904;28;20437;-68
2021/08/12 08:29:10;;;;;;;9.33;6.80;;;23.80;99.90;;;;;;5111741;28;20866;-68
2021/08/12 08:31:37;;;;;;;8.23;6.70;;;24.00;99.90;;;;;;5112458;28;20880;-68
2021/08/12 08:34:04;;;;;;;9.87;6.70;;;24.20;99.90;;;;;;5112091;28;20548;-68
2021/08/12 08:36:30;;;;;;;8.27;6.07;;;24.20;99.90;;;;;;5111924;28;20560;-69
2021/08/12 08:38:57;;;;;;;9.80;7.60;;;24.40;99.90;;;;;;5111762;28;20472;-68
2021/08/12 08:41:24;;;;;;;8.40;7.17;;;24.50;99.90;;;;;;5111803;28;20472;-68
2021/08/12 08:43:54;;;;;;;7.80;6.60;;;24.60;99.90;;;;;;5112221;28;20445;-69
2021/08/12 08:46:23;;;;;;;16.27;7.10;;;24.80;99.90;;;;;;5111826;28;20444;-68
2021/08/12 08:48:54;;;;;;;8.17;7.30;;;24.90;99.90;;;;;;5111952;28;20437;-69
2021/08/12 08:51:22;;;;;;;6.93;6.30;;;24.90;99.90;;;;;;5111484;28;20814;-68
2021/08/12 08:53:50;;;;;;;7.57;6.40;;;25.00;99.90;;;;;;5111990;28;20540;-68
2021/08/12 08:56:18;;;;;;;7.93;6.70;;;25.00;99.90;;;;;;5110967;28;20477;-68
2021/08/12 08:58:46;;;;;;;7.07;6.10;;;25.10;99.90;;;;;;5112023;28;20469;-68
2021/08/12 09:01:13;;;;;;;10.63;7.57;;;25.30;99.90;;;;;;5111338;28;20839;-68
2021/08/12 09:03:41;;;;;;;8.77;6.90;;;25.60;99.90;;;;;;5111665;28;20980;-68
2021/08/12 09:06:09;;;;;;;7.70;6.33;;;25.70;99.90;;;;;;5111170;28;20444;-68
2021/08/12 09:08:36;;;;;;;7.60;6.80;;;25.90;99.90;;;;;;5111384;28;20643;-68
2021/08/12 09:11:03;;;;;;;6.37;5.77;;;26.10;99.90;;;;;;5110835;28;20773;-68
2021/08/12 09:13:30;;;;;;;7.70;6.43;;;26.40;99.90;;;;;;5111766;28;20827;-68
2021/08/12 09:15:57;;;;;;;9.57;6.67;;;26.70;99.90;;;;;;5111091;28;20564;-68
2021/08/12 09:18:25;;;;;;;6.90;6.20;;;26.60;99.90;;;;;;5111526;28;20452;-68
2021/08/12 09:20:56;;;;;;;7.50;6.80;;;26.80;99.90;;;;;;5110254;28;20892;-68
2021/08/12 09:23:28;;;;;;;11.57;7.20;;;27.00;99.90;;;;;;5111079;28;20452;-68
2021/08/12 09:25:55;;;;;;;10.80;6.80;;;27.20;99.90;;;;;;5110954;28;20445;-68
2021/08/12 09:28:26;;;;;;;6.50;5.90;;;27.20;99.90;;;;;;5111452;28;20452;-68
2021/08/12 09:31:12;;;;;;;7.30;6.37;;;27.40;99.90;;;;;;5110584;28;20476;-68
2021/08/12 09:33:56;;;;;;;7.63;6.60;;;27.60;99.90;;;;;;5111133;28;20494;-68
2021/08/12 09:36:27;;;;;;;7.13;6.43;;;27.90;99.90;;;;;;5110621;28;20488;-68
2021/08/12 09:39:23;;;;;;;9.17;6.07;;;28.00;99.90;;;;;;5109896;28;20455;-68
2021/08/12 09:41:52;;;;;;;6.93;6.27;;;28.30;99.90;;;;;;5063827;28;20449;-68
2021/08/12 09:44:40;;;;;;;7.13;6.03;;;28.70;99.90;;;;;;5110515;28;20445;-68
2021/08/12 09:47:10;;;;;;;6.97;6.27;;;29.00;99.90;;;;;;5111151;28;20953;-68
2021/08/12 09:49:44;;;;;;;6.80;6.10;;;29.20;99.90;;;;;;5110296;28;20827;-68
2021/08/12 09:52:26;;;;;;;6.27;5.60;;;29.60;99.90;;;;;;5111020;28;20417;-68
2021/08/12 09:55:02;;;;;;;5.83;5.17;;;30.10;99.90;;;;;;5110426;28;21044;-68
2021/08/12 09:57:41;;;;;;;5.80;5.20;;;30.40;99.90;;;;;;5110926;28;20437;-69
2021/08/12 10:00:10;;;;;;;7.20;5.77;;;30.60;99.90;;;;;;5109907;28;20497;-69
2021/08/12 10:02:36;;;;;;;6.70;5.60;;;30.60;99.90;;;;;;5110548;28;20833;-68
2021/08/12 10:05:06;;;;;;;7.07;5.80;;;30.70;99.90;;;;;;5110579;28;21297;-69
2021/08/12 10:07:42;;;;;;;6.00;5.40;;;31.40;99.90;;;;;;5110645;28;20537;-69
2021/08/12 10:10:10;;;;;;;5.93;5.20;;;31.70;99.10;;;;;;5109922;28;20552;-68
2021/08/12 10:12:42;;;;;;;6.87;5.13;;;32.40;98.80;;;;;;5110763;28;20453;-69
2021/08/12 10:15:11;;;;;;;7.77;5.93;;;32.50;96.30;;;;;;5110400;28;20484;-69
2021/08/12 10:17:39;;;;;;;5.90;5.37;;;32.00;96.90;;;;;;5110754;28;20494;-69
2021/08/12 10:20:08;;;;;;;6.60;5.70;;;31.90;96.50;;;;;;5109311;28;20480;-68
2021/08/12 10:22:35;;;;;;;6.70;5.90;;;31.80;96.10;;;;;;5110304;28;20463;-68
2021/08/12 10:25:03;;;;;;;6.50;5.70;;;31.90;97.70;;;;;;5109942;28;20819;-68
2021/08/12 10:27:31;;;;;;;5.80;5.20;;;31.90;96.50;;;;;;5110235;28;20509;-68
2021/08/12 10:30:00;;;;;;;6.10;5.50;;;32.00;96.10;;;;;;5109124;28;20560;-68
2021/08/12 10:32:28;;;;;;;6.47;5.17;;;31.80;95.20;;;;;;5110138;28;20441;-68
2021/08/12 10:34:55;;;;;;;7.57;6.00;;;32.00;96.20;;;;;;5109828;28;20463;-67
2021/08/12 10:37:22;;;;;;;7.33;6.07;;;31.90;97.00;;;;;;5110151;28;20580;-68
2021/08/12 10:39:48;;;;;;;7.03;6.33;;;32.50;95.00;;;;;;5109120;28;20469;-68
2021/08/12 10:42:21;;;;;;;6.57;6.00;;;32.80;96.90;;;;;;5109961;28;20445;-69
2021/08/12 10:44:48;;;;;;;6.10;5.50;;;33.30;94.80;;;;;;5109842;28;20508;-69
2021/08/12 10:47:44;;;;;;;5.30;4.80;;;33.70;93.30;;;;;;5110324;28;20437;-68
2021/08/12 10:50:31;;;;;;;5.80;5.20;;;33.70;92.50;;;;;;5112044;28;20456;-69
2021/08/12 10:53:20;;;;;;;5.60;5.10;;;34.10;93.20;;;;;;5114108;28;20448;-69
2021/08/12 10:56:08;;;;;;;5.70;5.20;;;33.50;93.50;;;;;;5113568;28;20991;-68
2021/08/12 10:58:40;;;;;;;6.70;5.90;;;33.30;90.80;;;;;;5114046;28;20452;-68
2021/08/12 11:01:09;;;;;;;10.10;5.90;;;33.50;91.00;;;;;;5113133;28;20858;-68
2021/08/12 11:03:45;;;;;;;6.13;5.53;;;33.20;90.40;;;;;;5114225;28;20441;-68
2021/08/12 11:06:17;;;;;;;7.03;6.33;;;32.60;92.30;;;;;;5113560;28;20991;-69
2021/08/12 11:09:00;;;;;;;7.10;5.50;;;32.80;93.00;;;;;;5114170;28;20431;-69
2021/08/12 11:11:59;;;;;;;5.73;5.10;;;33.10;94.10;;;;;;5110905;28;20982;-68
2021/08/12 11:14:52;;;;;;;6.73;6.03;;;33.90;93.20;;;;;;5113472;28;20441;-69
2021/08/12 11:17:21;;;;;;;8.93;6.30;;;34.30;91.00;;;;;;5113906;28;20508;-69
2021/08/12 11:19:48;;;;;;;6.47;5.83;;;34.40;92.50;;;;;;5112712;28;20568;-69
2021/08/12 11:22:36;;;;;;;6.63;6.03;;;34.80;91.90;;;;;;5113652;28;20528;-69
2021/08/12 11:25:08;;;;;;;7.07;6.40;;;34.80;89.30;;;;;;5113149;28;20433;-69
2021/08/12 11:27:44;;;;;;;6.77;6.17;;;34.10;88.70;;;;;;5113623;28;20448;-68
2021/08/12 11:30:41;;;;;;;7.10;6.40;;;34.10;90.40;;;;;;5112543;28;21017;-69
2021/08/12 11:33:31;;;;;;;6.63;6.03;;;34.30;88.60;;;;;;5113466;28;20441;-69
2021/08/12 11:36:24;;;;;;;6.73;6.13;;;34.50;90.10;;;;;;5112823;28;20457;-69
2021/08/12 11:39:01;;;;;;;6.57;5.97;;;35.00;89.70;;;;;;5113000;28;20447;-69
2021/08/12 11:41:35;;;;;;;7.03;6.40;;;35.20;86.40;;;;;;5112925;28;21003;-69
2021/08/12 11:44:03;;;;;;;6.80;6.10;;;35.90;85.00;;;;;;5113334;28;20440;-69
2021/08/12 11:46:36;;;;;;;10.87;6.50;;;36.30;80.90;;;;;;5112800;28;20455;-69
2021/08/12 11:49:03;;;;;;;11.23;6.70;;;36.20;84.50;;;;;;5112157;28;20432;-69
2021/08/12 11:51:32;;;;;;;7.10;6.40;;;35.90;85.70;;;;;;5113080;28;20457;-69
2021/08/12 11:53:59;;;;;;;6.33;5.83;;;35.40;81.60;;;;;;5113106;28;21114;-69
2021/08/12 11:56:28;;;;;;;7.47;6.77;;;34.80;83.40;;;;;;5112831;28;20484;-69
2021/08/12 11:58:56;;;;;;;7.33;6.63;;;34.20;85.80;;;;;;5112785;28;20441;-68
2021/08/12 12:01:24;;;;;;;7.33;6.27;;;33.40;84.50;;;;;;5111543;28;20479;-69
2021/08/12 12:03:58;;;;;;;6.07;5.53;;;33.20;86.00;;;;;;5112827;28;20445;-69
2021/08/12 12:06:33;;;;;;;7.73;6.87;;;33.50;85.60;;;;;;5112965;28;20614;-69
2021/08/12 12:09:19;;;;;;;6.97;6.27;;;33.90;86.40;;;;;;5112212;28;20533;-68
2021/08/12 12:11:50;;;;;;;6.70;6.10;;;34.10;85.10;;;;;;5113142;28;20430;-69
2021/08/12 12:14:19;;;;;;;7.20;6.53;;;34.50;82.80;;;;;;5112584;28;20421;-69
2021/08/12 12:17:11;;;;;;;9.80;6.97;;;35.00;87.30;;;;;;5112754;28;20484;-69
2021/08/12 12:20:07;;;;;;;8.30;6.23;;;36.00;81.70;;;;;;5111846;28;20465;-69
2021/08/12 12:22:35;;;;;;;6.80;6.20;;;36.00;80.90;;;;;;5112159;28;20904;-69
2021/08/12 12:25:04;;;;;;;7.30;6.20;;;35.40;78.70;;;;;;5112657;28;20465;-69
2021/08/12 12:27:32;;;;;;;6.90;6.13;;;35.20;81.60;;;;;;5113178;28;20434;-69
2021/08/12 12:30:11;;;;;;;7.07;5.90;;;35.80;84.60;;;;;;5112189;28;20990;-69
2021/08/12 12:32:39;;;;;;;18.27;7.17;;;36.60;76.50;;;;;;5113110;28;20505;-69
2021/08/12 12:35:09;;;;;;;6.60;5.80;;;36.50;70.20;;;;;;5112351;28;20453;-69
2021/08/12 12:37:38;;;;;;;7.43;6.00;;;36.60;79.00;;;;;;5112255;28;20557;-69
2021/08/12 12:40:07;;;;;;;6.63;6.03;;;36.30;73.40;;;;;;5111374;28;20564;-68
2021/08/12 12:42:35;;;;;;;6.67;6.07;;;36.70;71.00;;;;;;5110695;28;20445;-69
2021/08/12 12:45:05;;;;;;;7.20;6.13;;;37.20;69.20;;;;;;5111823;28;20453;-68
2021/08/12 12:47:33;;;;;;;8.17;5.97;;;37.30;69.70;;;;;;5111934;28;20469;-69